Time;durP1;ratioP1;P1;durP2;ratioP2;P2;SDS_P1;SDS_P2;PMS_P1;PMS_P2;Temp;Humidity;BMP_temperature;BMP_pressure;BME280_temperature;BME280_humidity;BME280_pressure;Samples;Min_cycle;Max_cycle;Signal;HPM_P1;HPM_P2
2022/09/23 00:00:10;;;;;;;23.50;18.20;;;;;;;9.39;94.55;101722.16;5010942;28;20064;-67
2022/09/23 00:02:35;;;;;;;18.67;16.40;;;;;;;9.38;95.09;101720.44;5025090;28;20041;-67
2022/09/23 00:05:01;;;;;;;20.58;18.05;;;;;;;9.36;94.64;101723.41;5026335;28;20049;-67
2022/09/23 00:07:27;;;;;;;18.63;16.63;;;;;;;9.34;94.92;101715.38;5028044;28;20068;-67
2022/09/23 00:09:54;;;;;;;20.05;17.95;;;;;;;9.32;94.94;101719.38;5028438;28;20053;-67
2022/09/23 00:12:19;;;;;;;20.85;18.63;;;;;;;9.28;94.81;101713.47;5026794;28;20045;-67
2022/09/23 00:14:44;;;;;;;20.05;16.88;;;;;;;9.28;95.63;101707.97;5028852;28;20084;-67
2022/09/23 00:17:10;;;;;;;20.58;18.40;;;;;;;9.27;95.45;101717.22;5026040;28;20017;-67
2022/09/23 00:19:38;;;;;;;20.52;17.50;;;;;;;9.27;95.31;101710.91;5026608;28;20428;-67
2022/09/23 00:22:03;;;;;;;20.80;18.60;;;;;;;9.27;95.20;101703.50;5026719;28;20477;-68
2022/09/23 00:24:31;;;;;;;21.00;18.80;;;;;;;9.23;95.26;101702.25;5027217;28;20051;-67
2022/09/23 00:26:57;;;;;;;21.23;19.10;;;;;;;9.24;95.17;101703.94;5027030;28;20025;-67
2022/09/23 00:29:23;;;;;;;21.98;18.95;;;;;;;9.21;94.84;101707.06;5027668;28;20041;-67
2022/09/23 00:31:48;;;;;;;21.05;18.40;;;;;;;9.22;95.06;101695.06;5027528;28;20535;-67
2022/09/23 00:34:14;;;;;;;20.58;17.55;;;;;;;9.22;95.89;101694.22;5027601;28;20447;-67
2022/09/23 00:36:39;;;;;;;19.27;16.75;;;;;;;9.20;95.75;101691.69;5027073;28;20030;-67
2022/09/23 00:39:04;;;;;;;20.00;17.95;;;;;;;9.16;95.29;101689.53;5027568;28;20106;-67
2022/09/23 00:41:30;;;;;;;19.63;17.65;;;;;;;9.12;95.46;101689.09;5026991;28;20068;-68
2022/09/23 00:43:59;;;;;;;20.58;17.15;;;;;;;9.10;95.89;101691.19;5025405;28;20114;-67
2022/09/23 00:46:34;;;;;;;20.00;17.88;;;;;;;9.16;95.87;101689.53;5027333;28;20507;-67
2022/09/23 00:49:03;;;;;;;20.08;17.80;;;;;;;9.06;95.48;101690.72;5027135;28;20075;-67
2022/09/23 00:51:35;;;;;;;19.58;17.58;;;;;;;9.03;95.76;101684.84;5041962;28;20720;-67
2022/09/23 00:54:01;;;;;;;21.00;18.73;;;;;;;9.01;95.54;101686.91;5027836;28;20030;-67
2022/09/23 00:56:29;;;;;;;20.73;17.73;;;;;;;8.99;95.79;101684.38;5026589;28;20038;-67
2022/09/23 00:58:54;;;;;;;19.60;17.45;;;;;;;9.00;96.06;101679.72;5026480;28;20389;-67
2022/09/23 01:01:20;;;;;;;20.50;17.88;;;;;;;8.96;96.01;101679.28;5027074;28;20038;-67
2022/09/23 01:03:46;;;;;;;19.67;17.67;;;;;;;8.91;95.83;101681.78;5073579;22;20199;-65
2022/09/23 01:06:12;;;;;;;18.52;16.55;;;;;;;8.90;96.18;101685.56;5042581;28;20120;-65
2022/09/23 01:08:39;;;;;;;20.35;18.13;;;;;;;8.90;96.40;101677.34;5046237;28;20596;-65
2022/09/23 01:11:10;;;;;;;19.85;17.73;;;;;;;8.88;96.26;101681.34;5045942;28;20142;-65
2022/09/23 01:13:57;;;;;;;20.88;18.15;;;;;;;8.86;96.25;101684.25;5046336;28;20044;-65
2022/09/23 01:16:41;;;;;;;21.08;17.60;;;;;;;8.80;95.94;101680.44;5045844;28;20498;-64
2022/09/23 01:19:19;;;;;;;20.98;17.70;;;;;;;8.78;96.27;101677.06;5045919;28;20060;-64
2022/09/23 01:21:57;;;;;;;20.48;17.30;;;;;;;8.78;96.23;101666.09;5044032;28;20036;-65
2022/09/23 01:24:37;;;;;;;18.58;16.65;;;;;;;8.79;96.42;101670.53;5045486;28;20395;-65
2022/09/23 01:27:35;;;;;;;19.92;17.92;;;;;;;8.80;96.37;101679.59;5045012;28;20094;-65
2022/09/23 01:30:10;;;;;;;20.13;16.88;;;;;;;8.74;96.11;101680.38;5048866;28;20032;-65
2022/09/23 01:33:23;;;;;;;18.80;16.80;;;;;;;8.79;96.39;101672.41;5048446;28;20063;-65
2022/09/23 01:36:10;;;;;;;18.65;16.63;;;;;;;8.76;96.28;101670.91;5039235;28;20048;-65
2022/09/23 01:38:46;;;;;;;21.48;17.77;;;;;;;8.73;96.07;101665.84;5049095;28;20037;-65
2022/09/23 01:41:50;;;;;;;21.30;17.40;;;;;;;8.72;96.29;101664.16;5046294;28;20064;-65
2022/09/23 01:44:47;;;;;;;19.50;17.40;;;;;;;8.70;96.48;101668.13;5030654;28;20025;-65
2022/09/23 01:47:25;;;;;;;21.30;17.98;;;;;;;8.67;96.46;101663.03;5039424;28;20079;-65
2022/09/23 01:50:00;;;;;;;21.77;17.70;;;;;;;8.64;96.14;101667.03;5049411;28;20032;-65
2022/09/23 01:52:41;;;;;;;18.83;16.83;;;;;;;8.65;96.47;101665.97;5048272;28;20044;-65
2022/09/23 01:55:15;;;;;;;19.73;16.85;;;;;;;8.60;96.51;101660.25;5050225;28;20083;-65
2022/09/23 01:57:47;;;;;;;20.08;17.55;;;;;;;8.58;96.58;101660.47;5048595;28;20430;-65
2022/09/23 02:00:16;;;;;;;21.20;18.08;;;;;;;8.57;96.63;101657.94;5049094;28;20025;-65
2022/09/23 02:02:48;;;;;;;;;;;;;;;8.71;95.48;101658.84;5049364;28;20037;-65
2022/09/23 02:05:24;;;;;;;19.77;16.27;;;;;;;8.62;96.53;101655.44;5049664;28;19923;-65
2022/09/23 02:07:58;;;;;;;21.08;17.58;;;;;;;8.59;96.63;101661.31;5048828;28;20118;-65
2022/09/23 02:10:36;;;;;;;18.40;16.50;;;;;;;8.60;96.51;101660.25;5047835;28;20452;-66
2022/09/23 02:13:08;;;;;;;18.63;16.70;;;;;;;8.57;96.41;101652.44;5048655;28;20036;-67
2022/09/23 02:15:40;;;;;;;20.05;17.00;;;;;;;8.55;96.44;101649.88;5049290;28;20029;-66
2022/09/23 02:18:20;;;;;;;19.40;16.92;;;;;;;8.58;96.59;101652.25;5048747;28;20033;-66
2022/09/23 02:20:49;;;;;;;18.67;16.70;;;;;;;8.60;96.68;101651.19;5046418;28;20440;-65
2022/09/23 02:23:28;;;;;;;18.33;16.42;;;;;;;8.63;97.29;101651.66;5048938;28;20033;-66
2022/09/23 02:26:16;;;;;;;21.95;17.02;;;;;;;8.64;97.14;101653.34;5047281;28;20391;-66
2022/09/23 02:28:58;;;;;;;19.13;16.42;;;;;;;8.65;97.02;101641.34;5041857;28;20438;-67
2022/09/23 02:31:39;;;;;;;19.23;17.00;;;;;;;8.65;96.57;101640.50;5048313;28;20049;-67
2022/09/23 02:34:31;;;;;;;19.83;16.67;;;;;;;8.66;97.01;101632.06;5047272;28;20021;-67
2022/09/23 02:37:05;;;;;;;22.50;17.40;;;;;;;8.63;96.47;101628.91;5047350;28;20064;-67
2022/09/23 02:39:47;;;;;;;21.00;16.60;;;;;;;8.61;96.60;101631.81;5048347;28;20475;-67
2022/09/23 02:42:18;;;;;;;18.98;16.77;;;;;;;8.58;96.48;101626.75;5046810;28;20036;-66
2022/09/23 02:44:43;;;;;;;19.95;16.38;;;;;;;8.52;97.04;101620.19;5029532;28;20052;-67
2022/09/23 02:47:09;;;;;;;20.75;16.75;;;;;;;8.53;96.75;101624.63;5048354;28;20075;-67
2022/09/23 02:49:35;;;;;;;18.77;16.83;;;;;;;8.52;97.24;101613.88;5049173;28;20037;-67
2022/09/23 02:52:06;;;;;;;18.75;16.60;;;;;;;8.47;97.25;101613.63;5047819;28;20021;-67
2022/09/23 02:54:32;;;;;;;19.33;16.67;;;;;;;8.46;96.95;101612.75;5048845;28;20029;-66
2022/09/23 02:57:01;;;;;;;19.75;16.65;;;;;;;8.42;97.42;101610.63;5047663;28;20033;-67
2022/09/23 02:59:27;;;;;;;19.05;16.23;;;;;;;8.35;97.27;101606.94;5049229;28;20118;-67
2022/09/23 03:02:49;;;;;;;18.58;16.58;;;;;;;8.35;97.78;101598.72;5046226;28;20021;-66
2022/09/23 03:05:26;;;;;;;20.45;17.42;;;;;;;8.29;97.59;101600.38;5045208;28;20041;-66
2022/09/23 03:08:24;;;;;;;19.17;16.65;;;;;;;8.26;97.94;101598.00;5043251;28;20332;-67
2022/09/23 03:11:11;;;;;;;19.02;17.13;;;;;;;8.22;97.53;101602.22;5045325;28;20029;-66
2022/09/23 03:14:05;;;;;;;21.55;16.98;;;;;;;8.18;97.89;101599.00;5048091;28;20530;-66
2022/09/23 03:16:30;;;;;;;18.40;16.33;;;;;;;8.12;97.69;101593.47;5048499;28;20108;-67
2022/09/23 03:19:03;;;;;;;18.57;16.37;;;;;;;8.11;98.12;101592.63;5048628;28;20155;-67
2022/09/23 03:21:42;;;;;;;19.27;17.15;;;;;;;8.12;98.59;101594.31;5043409;28;20437;-67
2022/09/23 03:24:13;;;;;;;19.85;17.65;;;;;;;8.05;98.11;101591.50;5033983;28;20075;-66
2022/09/23 03:26:41;;;;;;;20.83;17.67;;;;;;;8.06;98.30;101592.38;5047721;28;20041;-66
2022/09/23 03:29:10;;;;;;;21.48;17.13;;;;;;;8.03;98.54;101588.13;5047407;28;20033;-67
2022/09/23 03:31:41;;;;;;;19.17;17.00;;;;;;;8.00;98.49;101588.50;5046998;28;20033;-66
2022/09/23 03:34:17;;;;;;;20.27;17.50;;;;;;;8.01;98.97;101590.22;5048062;28;20068;-66
2022/09/23 03:36:59;;;;;;;20.40;18.05;;;;;;;8.01;99.24;101586.66;5046283;28;20035;-67
2022/09/23 03:39:39;;;;;;;19.17;17.17;;;;;;;8.03;99.58;101590.03;5045789;28;20116;-67
2022/09/23 03:42:11;;;;;;;22.98;18.73;;;;;;;8.00;99.23;101596.72;5027987;28;20061;-67
2022/09/23 03:44:38;;;;;;;19.95;17.85;;;;;;;7.99;99.06;101584.09;5035265;28;20074;-67
2022/09/23 03:47:03;;;;;;;19.90;17.90;;;;;;;8.00;99.28;101590.41;5045891;28;20110;-67
2022/09/23 03:49:34;;;;;;;20.77;17.02;;;;;;;7.99;99.27;101585.97;5045200;28;20716;-67
2022/09/23 03:52:01;;;;;;;20.35;18.17;;;;;;;7.97;99.44;101575.25;5043872;28;20086;-67
2022/09/23 03:54:28;;;;;;;21.67;18.13;;;;;;;7.95;99.44;101576.47;5047027;28;20041;-66
2022/09/23 03:56:56;;;;;;;20.40;18.13;;;;;;;7.97;99.59;101574.41;5047235;28;20032;-67
2022/09/23 03:59:22;;;;;;;19.92;17.52;;;;;;;7.98;99.49;101576.94;5048153;28;20024;-67
2022/09/23 04:01:47;;;;;;;19.73;16.67;;;;;;;7.97;99.31;101579.88;5046346;28;20029;-67
2022/09/23 04:04:12;;;;;;;19.35;17.30;;;;;;;7.97;99.57;101585.34;5046576;28;20052;-67
2022/09/23 04:06:38;;;;;;;22.15;17.98;;;;;;;7.93;99.20;101576.66;5044463;28;20032;-66
2022/09/23 04:09:03;;;;;;;20.45;18.25;;;;;;;7.94;99.43;101569.31;5043930;28;20067;-66
2022/09/23 04:11:28;;;;;;;20.70;18.45;;;;;;;7.93;99.67;101573.09;5046548;28;20056;-66
2022/09/23 04:13:54;;;;;;;19.77;17.75;;;;;;;7.94;99.68;101572.88;5047904;28;20033;-67
2022/09/23 04:16:20;;;;;;;20.27;17.55;;;;;;;7.94;99.82;101570.16;5044619;28;20412;-67
2022/09/23 04:18:45;;;;;;;19.83;17.75;;;;;;;7.91;100.00;101573.31;5046955;28;20116;-67
2022/09/23 04:21:11;;;;;;;22.65;17.85;;;;;;;7.94;99.71;101569.31;5045099;28;20060;-67
2022/09/23 04:23:36;;;;;;;23.20;18.13;;;;;;;7.91;100.00;101566.97;5043127;28;20348;-67
2022/09/23 04:26:04;;;;;;;20.23;17.85;;;;;;;7.89;99.86;101577.25;5045495;28;20033;-67
2022/09/23 04:28:29;;;;;;;19.45;17.48;;;;;;;7.87;99.62;101573.88;5047135;28;20479;-66
2022/09/23 04:30:56;;;;;;;21.13;17.92;;;;;;;7.85;99.49;101576.78;5044072;28;20040;-67
2022/09/23 04:33:23;;;;;;;19.85;17.75;;;;;;;7.83;99.64;101573.41;5047102;28;20435;-66
2022/09/23 04:35:50;;;;;;;19.95;17.88;;;;;;;7.81;99.86;101578.25;5042377;28;20037;-67
2022/09/23 04:38:16;;;;;;;20.33;17.88;;;;;;;7.85;100.00;101578.69;5047393;28;20705;-66
2022/09/23 04:40:42;;;;;;;20.67;17.98;;;;;;;7.85;100.00;101565.84;5043213;28;20075;-66
2022/09/23 04:43:07;;;;;;;20.52;18.20;;;;;;;7.83;100.00;101578.03;5045969;28;20897;-67
2022/09/23 04:45:33;;;;;;;20.08;17.92;;;;;;;7.83;100.00;101572.56;5046148;28;20379;-67
2022/09/23 04:47:58;;;;;;;21.98;17.92;;;;;;;7.82;100.00;101570.88;5044959;28;20040;-67
2022/09/23 04:50:25;;;;;;;22.48;18.25;;;;;;;7.82;100.00;101574.47;5043658;28;20039;-67
2022/09/23 04:52:51;;;;;;;20.23;18.10;;;;;;;7.82;100.00;101560.78;5045771;28;20107;-67
2022/09/23 04:55:17;;;;;;;19.95;17.13;;;;;;;7.84;100.00;101557.84;5046589;28;20159;-67
2022/09/23 04:57:43;;;;;;;19.27;17.20;;;;;;;7.85;100.00;101570.47;5046303;28;20104;-66
2022/09/23 05:00:11;;;;;;;20.25;18.00;;;;;;;7.84;100.00;101568.78;5045685;28;20036;-66
2022/09/23 05:02:44;;;;;;;20.33;17.98;;;;;;;7.84;100.00;101558.69;5045921;28;20033;-67
2022/09/23 05:05:10;;;;;;;20.10;18.05;;;;;;;7.80;100.00;101550.03;5048259;28;20052;-67
2022/09/23 05:07:35;;;;;;;20.95;17.95;;;;;;;7.80;100.00;101554.66;5049920;28;20025;-66
2022/09/23 05:10:01;;;;;;;20.10;17.95;;;;;;;7.79;100.00;101561.16;5049788;28;20025;-66
2022/09/23 05:12:26;;;;;;;21.25;18.35;;;;;;;7.78;100.00;101554.84;5050102;28;20159;-67
2022/09/23 05:14:51;;;;;;;20.33;17.85;;;;;;;7.77;100.00;101550.44;5049063;28;20460;-67
2022/09/23 05:17:17;;;;;;;19.52;17.35;;;;;;;7.77;100.00;101558.63;5049766;28;20167;-67
2022/09/23 05:19:42;;;;;;;20.25;18.08;;;;;;;7.76;100.00;101556.94;5049771;28;20116;-67
2022/09/23 05:22:07;;;;;;;19.63;17.52;;;;;;;7.76;100.00;101565.16;5048204;28;20381;-67
2022/09/23 05:24:32;;;;;;;19.92;17.55;;;;;;;7.75;100.00;101565.31;5049731;28;20033;-66
2022/09/23 05:26:59;;;;;;;21.02;17.67;;;;;;;7.78;100.00;101565.78;5049783;28;20032;-66
2022/09/23 05:29:25;;;;;;;19.77;17.67;;;;;;;7.78;100.00;101560.31;5050086;28;20082;-66
2022/09/23 05:31:50;;;;;;;24.08;18.15;;;;;;;7.79;100.00;101564.75;5049314;28;20040;-67
2022/09/23 05:34:17;;;;;;;19.83;17.52;;;;;;;7.79;100.00;101567.47;5049994;28;20029;-66
2022/09/23 05:36:42;;;;;;;19.70;17.42;;;;;;;7.85;100.00;101565.00;5048228;28;20430;-66
2022/09/23 05:39:08;;;;;;;19.88;17.75;;;;;;;7.85;100.00;101565.00;5049004;28;20024;-66
2022/09/23 05:41:33;;;;;;;24.45;17.77;;;;;;;7.87;100.00;101569.25;5049493;28;20108;-67
2022/09/23 05:43:58;;;;;;;21.77;17.83;;;;;;;7.90;100.00;101573.47;5048722;28;20036;-66
2022/09/23 05:46:29;;;;;;;21.48;17.52;;;;;;;7.93;100.00;101589.50;5049222;28;20699;-66
2022/09/23 05:48:56;;;;;;;19.95;17.83;;;;;;;7.94;100.00;101580.25;5048839;28;20035;-66
2022/09/23 05:51:23;;;;;;;20.80;18.70;;;;;;;7.95;100.00;101577.31;5048205;28;20033;-67
2022/09/23 05:53:53;;;;;;;18.95;16.65;;;;;;;7.96;100.00;101579.03;5048870;28;20029;-66
2022/09/23 05:56:22;;;;;;;19.23;16.65;;;;;;;7.99;100.00;101575.03;5048943;28;20102;-66
2022/09/23 05:58:49;;;;;;;19.90;17.52;;;;;;;8.01;100.00;101570.25;5050019;28;20426;-66
2022/09/23 06:01:18;;;;;;;19.98;17.58;;;;;;;8.06;100.00;101576.81;5049287;28;20136;-66
2022/09/23 06:03:48;;;;;;;20.42;16.83;;;;;;;8.09;100.00;101572.81;5049484;28;20082;-66
2022/09/23 06:06:14;;;;;;;19.35;16.77;;;;;;;8.14;100.00;101575.81;5048429;28;20025;-67
2022/09/23 06:08:40;;;;;;;21.92;17.27;;;;;;;8.16;100.00;101576.47;5048863;28;20111;-66
2022/09/23 06:11:07;;;;;;;19.10;17.02;;;;;;;8.21;100.00;101579.47;5048877;28;20033;-67
2022/09/23 06:13:37;;;;;;;19.35;16.10;;;;;;;8.28;100.00;101572.16;5048839;28;20094;-67
2022/09/23 06:16:06;;;;;;;18.42;16.40;;;;;;;8.36;100.00;101573.03;5047574;28;20025;-67
2022/09/23 06:18:32;;;;;;;20.45;16.70;;;;;;;8.43;100.00;101565.78;5048582;28;20345;-66
2022/09/23 06:21:02;;;;;;;18.98;17.00;;;;;;;8.49;100.00;101564.97;5046958;28;20069;-67
2022/09/23 06:23:28;;;;;;;20.30;16.13;;;;;;;8.55;100.00;101569.66;5048351;28;20041;-67
2022/09/23 06:25:58;;;;;;;18.67;16.77;;;;;;;8.59;100.00;101565.47;5048278;28;20059;-67
2022/09/23 06:28:24;;;;;;;18.02;16.02;;;;;;;8.61;100.00;101563.38;5049053;28;20048;-66
2022/09/23 06:30:56;;;;;;;20.42;16.70;;;;;;;8.65;100.00;101564.66;5034584;28;20025;-66
2022/09/23 06:33:21;;;;;;;21.00;16.08;;;;;;;8.73;100.00;101567.25;5028851;28;20037;-66
2022/09/23 06:35:47;;;;;;;18.73;16.02;;;;;;;8.81;100.00;101561.59;5028328;28;20025;-66
2022/09/23 06:38:12;;;;;;;20.33;16.35;;;;;;;8.89;100.00;101557.03;5028287;28;20116;-66
2022/09/23 06:40:37;;;;;;;19.38;16.42;;;;;;;8.97;100.00;101562.31;5028224;28;20047;-66
2022/09/23 06:43:03;;;;;;;26.95;17.05;;;;;;;9.07;100.00;101557.31;5042044;28;20087;-66
2022/09/23 06:45:28;;;;;;;22.20;16.27;;;;;;;9.13;100.00;101552.94;5048713;28;20056;-67
2022/09/23 06:47:56;;;;;;;20.42;15.93;;;;;;;9.18;100.00;101556.75;5048078;28;20029;-66
2022/09/23 06:50:22;;;;;;;20.90;14.87;;;;;;;9.24;99.40;101564.16;5048935;28;20060;-67
2022/09/23 06:52:54;;;;;;;19.80;14.65;;;;;;;9.30;98.59;101560.59;5048938;28;20021;-67
2022/09/23 06:55:20;;;;;;;20.08;13.93;;;;;;;9.34;98.23;101561.88;5042819;28;20041;-66
2022/09/23 06:57:46;;;;;;;19.58;13.50;;;;;;;9.38;97.34;101565.06;5045559;28;20052;-67
2022/09/23 07:00:12;;;;;;;22.00;14.02;;;;;;;9.43;96.78;101565.28;5043479;28;20598;-67
2022/09/23 07:02:40;;;;;;;24.10;15.27;;;;;;;9.48;96.93;101567.38;5042254;28;20037;-67
2022/09/23 07:05:06;;;;;;;18.85;14.55;;;;;;;9.61;97.68;101561.94;5044564;28;20048;-67
2022/09/23 07:07:31;;;;;;;17.67;13.55;;;;;;;9.69;95.79;101556.28;5042215;28;20376;-67
2022/09/23 07:09:57;;;;;;;21.23;14.43;;;;;;;9.77;95.33;101557.97;5047555;28;20029;-67
2022/09/23 07:12:22;;;;;;;22.85;14.93;;;;;;;9.85;95.13;101555.88;5044992;28;20088;-67
2022/09/23 07:14:48;;;;;;;18.05;14.43;;;;;;;9.96;94.65;101559.06;5045698;28;20040;-67
2022/09/23 07:17:13;;;;;;;17.70;13.70;;;;;;;10.04;93.10;101561.63;5046949;28;20067;-67
2022/09/23 07:19:38;;;;;;;19.55;15.07;;;;;;;10.16;94.17;101567.31;5047450;28;20086;-67
2022/09/23 07:22:04;;;;;;;21.00;13.70;;;;;;;10.24;92.89;101557.00;5047050;28;20040;-67
2022/09/23 07:24:29;;;;;;;18.95;13.50;;;;;;;10.38;93.58;101561.41;5047114;28;20029;-67
2022/09/23 07:26:54;;;;;;;18.10;13.60;;;;;;;10.47;92.64;101561.22;5044066;28;20024;-66
2022/09/23 07:29:20;;;;;;;19.92;13.68;;;;;;;10.59;92.59;101559.50;5047058;28;20033;-67
2022/09/23 07:31:45;;;;;;;18.15;12.80;;;;;;;10.66;91.41;101557.59;5045398;28;20434;-67
2022/09/23 07:34:10;;;;;;;17.17;13.23;;;;;;;10.68;90.16;101557.38;5046660;28;20067;-66
2022/09/23 07:36:39;;;;;;;18.38;13.48;;;;;;;10.72;89.67;101554.00;5044844;28;20021;-67
2022/09/23 07:39:06;;;;;;;17.20;13.07;;;;;;;10.80;90.40;101555.69;5047171;28;20086;-66
2022/09/23 07:41:33;;;;;;;16.45;13.55;;;;;;;10.86;89.04;101558.41;5043629;28;20021;-66
2022/09/23 07:43:59;;;;;;;18.83;13.50;;;;;;;10.95;89.47;101561.78;5046479;28;20037;-66
2022/09/23 07:46:29;;;;;;;14.48;12.45;;;;;;;11.07;87.36;101554.53;5046490;28;20017;-67
2022/09/23 07:48:54;;;;;;;15.35;13.27;;;;;;;11.18;87.21;101551.09;5047165;28;20411;-66
2022/09/23 07:51:29;;;;;;;19.02;12.70;;;;;;;11.29;86.93;101549.56;5045769;28;20103;-66
2022/09/23 07:53:55;;;;;;;16.38;13.23;;;;;;;11.41;87.15;101552.50;5045125;28;20028;-67
2022/09/23 07:56:24;;;;;;;17.45;13.02;;;;;;;11.56;87.86;101554.97;5046166;28;20025;-67
2022/09/23 07:58:58;;;;;;;15.77;13.02;;;;;;;11.72;86.42;101554.44;5044910;28;20024;-66
2022/09/23 08:01:25;;;;;;;18.48;13.18;;;;;;;11.86;85.73;101558.84;5044618;28;20013;-70
2022/09/23 08:03:50;;;;;;;15.73;12.90;;;;;;;11.99;83.97;101559.81;5041156;28;20131;-67
2022/09/23 08:06:16;;;;;;;18.60;13.13;;;;;;;12.07;83.83;101565.91;5036990;28;20107;-66
2022/09/23 08:08:42;;;;;;;16.75;12.65;;;;;;;12.14;83.83;101560.31;5022586;28;20029;-66
2022/09/23 08:11:09;;;;;;;16.25;12.88;;;;;;;12.25;82.64;101570.59;5028913;28;20052;-66
2022/09/23 08:13:34;;;;;;;15.45;12.77;;;;;;;12.28;81.67;101556.41;5028828;28;20037;-66
2022/09/23 08:16:00;;;;;;;18.55;12.27;;;;;;;12.37;82.82;101563.31;5034034;28;20368;-66
2022/09/23 08:18:25;;;;;;;15.38;12.10;;;;;;;12.45;81.79;101563.03;5026442;28;20029;-66
2022/09/23 08:20:51;;;;;;;15.32;12.07;;;;;;;12.54;81.63;101571.84;5026294;28;20038;-66
2022/09/23 08:23:19;;;;;;;18.05;12.38;;;;;;;12.67;83.07;101562.59;5025950;28;20034;-66
2022/09/23 08:25:46;;;;;;;15.88;12.25;;;;;;;12.83;81.09;101562.03;5035469;28;20033;-67
2022/09/23 08:28:17;;;;;;;15.68;11.00;;;;;;;12.96;79.17;101561.03;5041634;28;20695;-66
2022/09/23 08:30:43;;;;;;;14.60;11.00;;;;;;;13.01;79.09;101563.94;5031652;28;20029;-66
2022/09/23 08:33:12;;;;;;;16.02;12.05;;;;;;;13.05;76.70;101562.41;5041134;28;20029;-66
2022/09/23 08:35:38;;;;;;;14.43;11.00;;;;;;;13.16;78.34;101558.88;5025412;28;20037;-66
2022/09/23 08:38:03;;;;;;;14.50;11.02;;;;;;;13.32;77.83;101554.69;5042190;28;20025;-66
2022/09/23 08:40:29;;;;;;;15.80;10.65;;;;;;;13.41;75.67;101555.22;5029380;28;20068;-66
2022/09/23 08:42:54;;;;;;;13.38;10.52;;;;;;;13.40;76.05;101554.38;5039281;28;20040;-66
2022/09/23 08:45:24;;;;;;;15.63;10.60;;;;;;;13.47;75.45;101563.41;5038196;28;20057;-66
2022/09/23 08:48:11;;;;;;;14.65;11.25;;;;;;;13.59;75.77;101557.97;5031544;28;20056;-66
2022/09/23 08:51:05;;;;;;;14.85;10.80;;;;;;;13.86;76.20;101555.66;5042390;28;20048;-66
2022/09/23 08:53:37;;;;;;;12.73;9.98;;;;;;;14.10;73.98;101564.00;5033675;28;20078;-66
2022/09/23 08:56:09;;;;;;;16.13;11.15;;;;;;;14.37;72.20;101561.66;5039232;28;20021;-67
2022/09/23 08:59:25;;;;;;;14.18;9.93;;;;;;;14.66;72.83;101555.22;5043481;28;20037;-65
2022/09/23 09:01:54;;;;;;;14.15;9.98;;;;;;;15.09;71.60;101551.19;5017938;28;20060;-65
2022/09/23 09:04:28;;;;;;;13.82;9.32;;;;;;;15.47;68.33;101547.84;5036734;28;20120;-65
2022/09/23 09:07:06;;;;;;;13.90;10.57;;;;;;;15.62;68.08;101546.47;5029849;28;20044;-65
2022/09/23 09:09:35;;;;;;;13.57;9.70;;;;;;;15.88;65.43;101543.13;5036032;28;20029;-65
2022/09/23 09:12:14;;;;;;;12.70;9.52;;;;;;;16.13;68.15;101539.97;5037875;28;20032;-66
2022/09/23 09:15:12;;;;;;;17.98;10.90;;;;;;;16.58;65.72;101539.88;5038621;28;20196;-66
2022/09/23 09:17:50;;;;;;;14.30;9.93;;;;;;;17.29;62.85;101537.28;5039498;28;20526;-66
2022/09/23 09:20:34;;;;;;;13.75;9.00;;;;;;;17.76;61.75;101535.88;5039745;28;20082;-66
2022/09/23 09:23:03;;;;;;;14.18;9.45;;;;;;;18.20;59.47;101538.50;5046400;28;20403;-66
2022/09/23 09:25:54;;;;;;;13.02;8.40;;;;;;;18.60;58.77;101538.84;5042152;28;20025;-67
2022/09/23 09:28:29;;;;;;;11.82;8.13;;;;;;;18.92;56.04;101546.31;5040442;28;20037;-66
2022/09/23 09:30:59;;;;;;;12.48;8.70;;;;;;;19.36;55.61;101534.81;5035844;28;20028;-66
2022/09/23 09:33:43;;;;;;;14.07;8.48;;;;;;;19.80;57.34;101534.41;5038709;28;20040;-66
2022/09/23 09:36:29;;;;;;;13.07;7.68;;;;;;;20.06;51.37;101532.50;5037940;28;20043;-66
2022/09/23 09:38:57;;;;;;;12.02;7.80;;;;;;;20.01;49.51;101524.97;5024885;28;20112;-66
2022/09/23 09:41:26;;;;;;;12.30;7.45;;;;;;;20.29;49.07;101531.13;5040043;28;20505;-66
2022/09/23 09:43:56;;;;;;;11.30;7.53;;;;;;;20.60;50.70;101527.22;5045422;28;20059;-66
2022/09/23 09:46:24;;;;;;;12.20;7.15;;;;;;;20.62;50.20;101524.97;5044717;28;20033;-66
2022/09/23 09:48:55;;;;;;;;;;;;;;;20.66;53.42;101528.03;5045205;28;20041;-66
2022/09/23 09:51:23;;;;;;;12.38;7.55;;;;;;;19.69;49.81;101531.59;5044656;28;20414;-66
2022/09/23 09:53:50;;;;;;;;;;;;;;;19.80;55.80;101529.69;5049134;28;20387;-66
2022/09/23 09:56:18;;;;;;;10.32;6.93;;;;;;;19.50;50.92;101524.84;5048501;28;20428;-66
2022/09/23 09:58:50;;;;;;;11.32;7.13;;;;;;;19.36;51.37;101526.44;5048684;28;20021;-66
2022/09/23 10:01:21;;;;;;;12.23;7.25;;;;;;;19.49;50.62;101514.81;5047735;28;20036;-66
2022/09/23 10:03:48;;;;;;;11.02;7.25;;;;;;;20.05;49.83;101522.47;5047713;28;20127;-66
2022/09/23 10:06:16;;;;;;;11.43;6.70;;;;;;;20.30;49.04;101522.47;5043501;28;20020;-66
2022/09/23 10:09:04;;;;;;;12.57;6.70;;;;;;;20.09;49.45;101509.66;5042581;28;20037;-66
2022/09/23 10:11:31;;;;;;;12.15;6.97;;;;;;;19.94;48.75;101514.09;5046181;28;20208;-66
2022/09/23 10:14:04;;;;;;;10.57;7.38;;;;;;;19.90;49.95;101517.69;5047744;28;20096;-66
2022/09/23 10:16:31;;;;;;;11.82;6.95;;;;;;;20.11;48.15;101516.59;5048611;28;20048;-66
2022/09/23 10:18:59;;;;;;;12.67;7.40;;;;;;;20.08;48.29;101505.19;5047040;28;20029;-66
2022/09/23 10:21:33;;;;;;;11.70;6.75;;;;;;;20.10;47.84;101512.16;5046678;28;20288;-66
2022/09/23 10:24:02;;;;;;;11.25;6.43;;;;;;;20.29;46.91;101503.22;5048164;28;20033;-66
2022/09/23 10:26:50;;;;;;;11.70;6.15;;;;;;;20.44;47.95;101506.00;5047348;28;20021;-66
2022/09/23 10:29:23;;;;;;;10.00;6.03;;;;;;;20.23;47.64;101505.19;5033641;28;20501;-66
2022/09/23 10:31:51;;;;;;;11.18;6.28;;;;;;;20.07;46.80;101509.94;5047207;28;20115;-66
2022/09/23 10:34:26;;;;;;;8.80;5.63;;;;;;;19.73;48.16;101505.97;5048206;28;20026;-66
2022/09/23 10:37:14;;;;;;;9.77;6.05;;;;;;;19.46;49.95;101506.97;5047770;28;20387;-66
2022/09/23 10:48:36;;;;;;;;;;;;;;;18.98;52.98;101505.41;5048623;28;20059;-66
2022/09/23 10:51:11;;;;;;;9.75;5.68;;;;;;;18.53;50.50;101507.63;5043567;28;19917;-66
2022/09/23 10:54:17;;;;;;;10.50;5.45;;;;;;;18.61;55.03;101500.72;5047418;28;20025;-66
2022/09/23 10:56:47;;;;;;;8.20;5.03;;;;;;;18.52;52.30;101508.72;5045377;28;20529;-66
2022/09/23 10:59:34;;;;;;;9.60;6.28;;;;;;;18.50;50.82;101499.84;5046556;28;20526;-66
2022/09/23 11:02:04;;;;;;;8.30;5.55;;;;;;;18.41;52.22;101498.66;5046772;28;20036;-66
2022/09/23 11:04:57;;;;;;;8.70;5.50;;;;;;;18.40;54.99;101495.03;5046881;28;20049;-66
2022/09/23 11:07:46;;;;;;;10.40;4.97;;;;;;;18.22;51.75;101497.38;5044403;28;20462;-66
2022/09/23 11:10:39;;;;;;;7.72;5.28;;;;;;;18.17;52.28;101500.97;5045279;28;20033;-66
2022/09/23 11:13:17;;;;;;;9.60;5.38;;;;;;;18.19;52.41;101486.78;5047421;28;20044;-66
2022/09/23 11:16:11;;;;;;;8.05;4.68;;;;;;;18.34;52.02;101489.69;5030934;28;20105;-66
2022/09/23 11:18:52;;;;;;;9.10;4.43;;;;;;;18.39;51.40;101498.06;5045315;28;20044;-66
2022/09/23 11:21:39;;;;;;;8.20;4.35;;;;;;;18.56;51.16;101489.56;5047455;28;20365;-66
2022/09/23 11:24:31;;;;;;;9.00;4.65;;;;;;;18.78;50.67;101489.44;5045605;28;20071;-66
2022/09/23 11:27:13;;;;;;;7.63;4.38;;;;;;;19.03;49.90;101478.44;5047049;28;20048;-66
2022/09/23 11:30:02;;;;;;;8.27;4.50;;;;;;;19.14;49.43;101477.38;5039911;28;20098;-66
2022/09/23 11:32:41;;;;;;;10.13;4.47;;;;;;;19.38;49.11;101471.31;5047361;28;20036;-66
2022/09/23 11:35:28;;;;;;;8.32;4.32;;;;;;;19.22;47.54;101478.78;5045528;28;20036;-66
2022/09/23 11:38:02;;;;;;;8.13;4.05;;;;;;;19.24;48.91;101478.50;5044861;28;20037;-66
2022/09/23 11:40:34;;;;;;;7.25;3.83;;;;;;;19.40;48.13;101469.09;5047134;28;20036;-66
2022/09/23 11:43:22;;;;;;;7.25;3.58;;;;;;;19.51;49.00;101473.56;5043303;28;21638;-64
2022/09/23 11:45:57;;;;;;;7.97;3.70;;;;;;;19.36;49.36;101468.81;5040940;28;20033;-65